createdAt,value
2017-09-09T00:01:05.732Z,46.40
2017-09-09T00:03:33.350Z,46.90
2017-09-09T00:06:01.033Z,47.60
2017-09-09T00:08:28.655Z,48.20
2017-09-09T00:10:56.320Z,49.20
2017-09-09T00:13:23.941Z,49.70
2017-09-09T00:15:51.566Z,50.10
2017-09-09T00:18:19.224Z,50.50
2017-09-09T00:20:46.853Z,50.20
2017-09-09T00:23:14.521Z,50.70
2017-09-09T00:25:42.156Z,51.00
2017-09-09T00:28:09.804Z,51.20
2017-09-09T00:30:37.451Z,51.80
2017-09-09T00:33:05.067Z,51.90
2017-09-09T00:35:32.731Z,51.40
2017-09-09T00:38:00.360Z,51.90
2017-09-09T00:40:27.979Z,51.30
2017-09-09T00:42:55.650Z,51.70
2017-09-09T00:45:23.280Z,51.20
2017-09-09T00:47:50.944Z,50.80
2017-09-09T00:50:18.577Z,50.90
2017-09-09T00:52:46.196Z,51.50
2017-09-09T00:55:13.849Z,52.10
2017-09-09T00:57:41.487Z,52.10
2017-09-09T01:00:09.143Z,52.00
2017-09-09T01:02:36.767Z,52.90
2017-09-09T01:05:04.408Z,52.30
2017-09-09T01:07:32.067Z,51.90
2017-09-09T01:09:59.697Z,52.40
2017-09-09T01:12:27.355Z,52.80
2017-09-09T01:14:54.984Z,52.40
2017-09-09T01:17:22.612Z,52.20
2017-09-09T01:19:50.260Z,51.40
2017-09-09T01:22:17.884Z,51.00
2017-09-09T01:24:45.547Z,51.20
2017-09-09T01:27:13.170Z,50.30
2017-09-09T01:29:40.804Z,50.30
2017-09-09T01:32:08.461Z,50.60
2017-09-09T01:34:36.088Z,50.30
2017-09-09T01:37:04.519Z,50.40
2017-09-09T01:39:32.141Z,50.20
2017-09-09T01:41:59.758Z,49.30
2017-09-09T01:44:27.404Z,48.70
2017-09-09T01:46:55.024Z,48.90
2017-09-09T01:49:22.681Z,48.50
2017-09-09T01:51:50.299Z,48.50
2017-09-09T01:54:17.932Z,47.20
2017-09-09T01:56:45.588Z,47.00
2017-09-09T01:59:13.217Z,46.60
2017-09-09T02:01:40.885Z,47.30
2017-09-09T02:04:08.519Z,46.80
2017-09-09T02:06:36.145Z,46.40
2017-09-09T02:09:03.803Z,46.20
2017-09-09T02:11:31.419Z,45.70
2017-09-09T02:13:59.068Z,46.00
2017-09-09T02:16:26.693Z,46.30
2017-09-09T02:18:54.308Z,46.20
2017-09-09T02:21:21.955Z,46.20
2017-09-09T02:23:49.576Z,50.00
2017-09-09T02:26:17.237Z,48.80
2017-09-09T02:28:44.859Z,48.80
2017-09-09T02:31:12.487Z,48.20
2017-09-09T02:33:40.139Z,48.80
2017-09-09T02:36:07.759Z,49.10
2017-09-09T02:38:35.432Z,49.30
2017-09-09T02:41:03.051Z,49.00
2017-09-09T02:43:30.673Z,49.40
2017-09-09T02:45:58.329Z,49.30
2017-09-09T02:48:25.958Z,48.80
2017-09-09T02:50:53.620Z,49.00
2017-09-09T02:53:21.245Z,49.00
2017-09-09T02:55:48.863Z,49.20
2017-09-09T02:58:16.512Z,48.50
2017-09-09T03:00:44.140Z,48.60
2017-09-09T03:03:11.796Z,49.00
2017-09-09T03:05:39.425Z,49.00
2017-09-09T03:08:07.811Z,49.00
2017-09-09T03:10:35.461Z,49.00
2017-09-09T03:13:03.090Z,49.30
2017-09-09T03:15:30.753Z,49.60
2017-09-09T03:17:58.380Z,49.00
2017-09-09T03:20:26.005Z,49.80
2017-09-09T03:22:53.651Z,50.00
2017-09-09T03:25:21.276Z,50.30
2017-09-09T03:27:48.944Z,50.30
2017-09-09T03:30:16.696Z,50.50
2017-09-09T03:32:44.316Z,50.50
2017-09-09T03:35:11.966Z,50.70
2017-09-09T03:37:39.587Z,50.90
2017-09-09T03:40:07.244Z,51.20
2017-09-09T03:42:34.860Z,53.00
2017-09-09T03:45:02.487Z,53.90
2017-09-09T03:47:30.136Z,54.30
2017-09-09T03:49:58.524Z,55.80
2017-09-09T03:52:26.183Z,55.80
2017-09-09T03:54:53.811Z,56.30
2017-09-09T03:57:21.441Z,56.00
2017-09-09T03:59:49.092Z,56.30
2017-09-09T04:02:16.732Z,56.70
2017-09-09T04:04:44.396Z,56.70
2017-09-09T04:07:12.019Z,58.00
2017-09-09T04:09:39.642Z,57.40
2017-09-09T04:12:07.285Z,59.10
2017-09-09T04:14:34.907Z,60.10
2017-09-09T04:17:02.565Z,57.80
2017-09-09T04:19:30.191Z,58.00
2017-09-09T04:21:57.811Z,59.70
2017-09-09T04:24:25.469Z,59.50
2017-09-09T04:26:53.099Z,58.80
2017-09-09T04:29:20.756Z,57.80
2017-09-09T04:31:48.395Z,57.40
2017-09-09T04:34:16.016Z,57.50
2017-09-09T04:36:43.666Z,58.30
2017-09-09T04:39:11.291Z,57.20
2017-09-09T04:41:38.958Z,57.10
2017-09-09T04:44:06.583Z,58.60
2017-09-09T04:46:34.207Z,62.20
2017-09-09T04:49:01.856Z,61.20
2017-09-09T04:51:29.491Z,64.00
2017-09-09T04:53:57.155Z,65.20
2017-09-09T04:56:24.776Z,64.30
2017-09-09T04:58:52.482Z,64.10
2017-09-09T05:01:20.131Z,66.50
2017-09-09T05:03:47.756Z,68.00
2017-09-09T05:06:15.423Z,65.30
2017-09-09T05:08:43.044Z,65.00
2017-09-09T05:11:10.696Z,67.90
2017-09-09T05:13:38.341Z,67.10
2017-09-09T05:16:05.972Z,67.90
2017-09-09T05:18:33.635Z,68.40
2017-09-09T05:21:01.259Z,68.50
2017-09-09T05:23:28.915Z,69.30
2017-09-09T05:25:56.567Z,69.10
2017-09-09T05:28:24.192Z,69.40
2017-09-09T05:30:51.852Z,69.90
2017-09-09T05:33:19.472Z,63.00
2017-09-09T05:35:47.094Z,61.40
2017-09-09T05:38:14.739Z,59.70
2017-09-09T05:40:42.358Z,58.80
2017-09-09T05:43:10.020Z,59.10
2017-09-09T05:45:37.660Z,56.80
2017-09-09T05:48:05.299Z,57.00
2017-09-09T05:50:32.958Z,55.60
2017-09-09T05:53:01.075Z,54.80
2017-09-09T05:55:29.620Z,52.90
2017-09-09T05:57:58.256Z,52.80
2017-09-09T06:00:25.897Z,53.90
2017-09-09T06:02:53.555Z,52.10
2017-09-09T06:05:21.176Z,52.60
2017-09-09T06:07:48.843Z,50.90
2017-09-09T06:10:16.477Z,51.50
2017-09-09T06:12:44.148Z,52.80
2017-09-09T06:15:11.846Z,50.00
2017-09-09T06:17:39.475Z,50.00
2017-09-09T06:20:07.147Z,50.20
2017-09-09T06:22:34.768Z,50.50
2017-09-09T06:25:03.406Z,50.70
2017-09-09T06:27:31.077Z,51.80
2017-09-09T06:29:58.739Z,51.40
2017-09-09T06:32:26.427Z,51.80
2017-09-09T06:34:54.075Z,52.60
2017-09-09T06:37:21.964Z,51.20
2017-09-09T06:39:49.634Z,51.50
2017-09-09T06:42:17.352Z,51.90
2017-09-09T06:44:45.028Z,50.40
2017-09-09T06:47:12.656Z,46.80
2017-09-09T06:49:40.267Z,43.80
2017-09-09T06:52:07.904Z,38.00
2017-09-09T06:54:35.515Z,36.00
2017-09-09T06:57:03.177Z,30.70
2017-09-09T06:59:30.780Z,30.50
2017-09-09T07:01:58.387Z,29.90
2017-09-09T07:04:26.035Z,34.20
2017-09-09T07:06:53.652Z,35.90
2017-09-09T07:09:21.295Z,39.10
2017-09-09T07:11:48.900Z,39.50
2017-09-09T07:14:16.518Z,38.30
2017-09-09T07:16:44.140Z,36.10
2017-09-09T07:19:13.110Z,34.50
2017-09-09T07:21:40.751Z,31.70
2017-09-09T07:24:08.373Z,27.80
2017-09-09T07:26:35.975Z,26.20
2017-09-09T07:29:03.601Z,25.50
2017-09-09T07:31:31.211Z,24.00
2017-09-09T07:33:59.612Z,21.20
2017-09-09T07:36:27.221Z,21.00
2017-09-09T07:38:55.598Z,25.40
2017-09-09T07:41:23.232Z,24.70
2017-09-09T07:43:50.847Z,26.10
2017-09-09T07:46:19.335Z,27.60
2017-09-09T07:48:47.817Z,28.90
2017-09-09T07:51:15.526Z,26.20
2017-09-09T07:53:43.157Z,29.40
2017-09-09T07:56:10.759Z,29.60
2017-09-09T07:58:38.394Z,31.30
2017-09-09T08:01:06.009Z,27.50
2017-09-09T08:03:33.620Z,27.60
2017-09-09T08:06:01.250Z,25.00
2017-09-09T08:08:28.851Z,23.30
2017-09-09T08:10:56.533Z,24.80
2017-09-09T08:13:24.141Z,24.00
2017-09-09T08:15:51.749Z,23.60
2017-09-09T08:18:19.386Z,24.50
2017-09-09T08:20:46.984Z,22.10
2017-09-09T08:23:14.635Z,27.20
2017-09-09T08:25:42.247Z,29.70
2017-09-09T08:28:09.851Z,29.90
2017-09-09T08:30:37.491Z,27.60
2017-09-09T08:33:05.087Z,26.60
2017-09-09T08:35:32.731Z,25.30
2017-09-09T08:38:00.335Z,24.20
2017-09-09T08:40:28.040Z,25.60
2017-09-09T08:42:55.673Z,26.30
2017-09-09T08:45:23.268Z,26.50
2017-09-09T08:47:50.911Z,27.80
2017-09-09T08:50:18.508Z,27.00
2017-09-09T08:52:46.115Z,25.80
2017-09-09T08:55:13.744Z,23.80
2017-09-09T08:57:41.351Z,24.90
2017-09-09T09:00:08.992Z,25.80
2017-09-09T09:02:36.595Z,24.60
2017-09-09T09:05:04.208Z,24.10
2017-09-09T09:07:31.843Z,24.40
2017-09-09T09:09:59.453Z,25.60
2017-09-09T09:12:27.092Z,23.70
2017-09-09T09:14:54.698Z,24.70
2017-09-09T09:17:22.305Z,27.50
2017-09-09T09:19:49.945Z,26.40
2017-09-09T09:22:17.553Z,28.50
2017-09-09T09:24:45.201Z,28.10
2017-09-09T09:27:12.804Z,27.30
2017-09-09T09:29:40.407Z,27.60
2017-09-09T09:32:08.040Z,30.00
2017-09-09T09:34:35.647Z,28.00
2017-09-09T09:37:03.295Z,28.30
2017-09-09T09:39:30.910Z,27.90
2017-09-09T09:41:58.525Z,27.60
2017-09-09T09:44:26.160Z,28.40
2017-09-09T09:46:53.768Z,26.90
2017-09-09T09:49:21.404Z,26.50
2017-09-09T09:51:49.011Z,27.00
2017-09-09T09:54:16.624Z,25.90
2017-09-09T09:56:44.256Z,25.80
2017-09-09T09:59:11.863Z,25.60
2017-09-09T10:01:39.511Z,26.10
2017-09-09T10:04:07.113Z,25.60
2017-09-09T10:06:34.723Z,25.00
2017-09-09T10:09:02.347Z,24.20
2017-09-09T10:11:29.961Z,25.60
2017-09-09T10:13:57.600Z,25.20
2017-09-09T10:16:25.208Z,26.30
2017-09-09T10:18:52.984Z,26.80
2017-09-09T10:21:20.613Z,27.00
2017-09-09T10:23:48.208Z,27.30
2017-09-09T10:26:15.852Z,27.70
2017-09-09T10:28:43.456Z,27.50
2017-09-09T10:31:11.055Z,26.70
2017-09-09T10:33:38.675Z,26.20
2017-09-09T10:36:06.398Z,26.10
2017-09-09T10:38:33.995Z,26.10
2017-09-09T10:41:02.389Z,26.60
2017-09-09T10:43:29.992Z,25.90
2017-09-09T10:45:57.596Z,26.00
2017-09-09T10:48:25.219Z,25.70
2017-09-09T10:50:52.835Z,26.40
2017-09-09T10:53:20.440Z,26.00
2017-09-09T10:55:48.061Z,26.40
2017-09-09T10:58:15.664Z,26.00
2017-09-09T11:00:43.267Z,25.60
2017-09-09T11:03:10.906Z,26.10
2017-09-09T11:05:38.514Z,27.00
2017-09-09T11:08:06.884Z,29.50
2017-09-09T11:10:34.512Z,29.70
2017-09-09T11:13:02.164Z,28.80
2017-09-09T11:15:29.788Z,28.30
2017-09-09T11:17:57.422Z,29.70
2017-09-09T11:20:25.039Z,27.90
2017-09-09T11:22:52.670Z,29.90
2017-09-09T11:25:20.317Z,29.70
2017-09-09T11:27:47.927Z,30.30
2017-09-09T11:30:15.528Z,30.00
2017-09-09T11:32:43.168Z,31.00
2017-09-09T11:35:10.771Z,30.80
2017-09-09T11:37:38.378Z,29.80
2017-09-09T11:40:05.999Z,29.80
2017-09-09T11:42:33.604Z,30.30
2017-09-09T11:45:01.273Z,29.70
2017-09-09T11:47:28.923Z,30.60
2017-09-09T11:49:56.544Z,31.50
2017-09-09T11:52:24.160Z,30.60
2017-09-09T11:54:51.755Z,32.30
2017-09-09T11:57:19.402Z,32.10
2017-09-09T11:59:47.006Z,32.10
2017-09-09T12:02:14.623Z,31.40
2017-09-09T12:04:42.264Z,29.80
2017-09-09T12:07:09.872Z,29.20
2017-09-09T12:09:37.543Z,29.20
2017-09-09T12:12:05.307Z,29.30
2017-09-09T12:14:32.908Z,32.00
2017-09-09T12:17:00.564Z,28.80
2017-09-09T12:19:28.184Z,28.40
2017-09-09T12:21:55.830Z,28.50
2017-09-09T12:24:23.448Z,28.10
2017-09-09T12:26:51.052Z,27.80
2017-09-09T12:29:18.704Z,27.10
2017-09-09T12:31:46.320Z,28.30
2017-09-09T12:34:14.271Z,28.30
2017-09-09T12:36:41.883Z,27.00
2017-09-09T12:39:18.485Z,28.00
2017-09-09T12:41:46.908Z,26.60
2017-09-09T12:44:14.555Z,27.00
2017-09-09T12:46:42.193Z,27.30
2017-09-09T12:49:09.818Z,25.70
2017-09-09T12:51:37.460Z,25.50
2017-09-09T12:54:05.066Z,26.20
2017-09-09T12:56:33.084Z,26.40
2017-09-09T12:59:00.687Z,25.90
2017-09-09T13:01:28.338Z,26.80
2017-09-09T13:03:57.408Z,24.10
2017-09-09T13:06:25.032Z,25.80
2017-09-09T13:08:52.667Z,24.70
2017-09-09T13:11:20.272Z,22.80
2017-09-09T13:13:47.883Z,23.00
2017-09-09T13:16:15.515Z,23.20
2017-09-09T13:18:43.121Z,23.00
2017-09-09T13:21:10.767Z,23.30
2017-09-09T13:23:38.392Z,23.20
2017-09-09T13:26:06.008Z,23.20
2017-09-09T13:28:33.636Z,23.80
2017-09-09T13:31:01.252Z,24.80
2017-09-09T13:33:28.924Z,23.90
2017-09-09T13:35:56.540Z,24.40
2017-09-09T13:38:24.174Z,24.60
2017-09-09T13:40:51.885Z,24.30
2017-09-09T13:43:19.512Z,26.50
2017-09-09T13:45:47.169Z,26.60
2017-09-09T13:48:14.792Z,30.00
2017-09-09T13:50:42.401Z,28.20
2017-09-09T13:53:10.024Z,27.40
2017-09-09T13:55:37.654Z,26.50
2017-09-09T13:58:05.335Z,27.40
2017-09-09T14:00:33.005Z,26.30
2017-09-09T14:03:01.081Z,27.30
2017-09-09T14:05:29.295Z,26.70
2017-09-09T14:07:57.191Z,27.60
2017-09-09T14:10:24.839Z,28.70
2017-09-09T14:12:52.567Z,28.20
2017-09-09T14:15:20.516Z,29.10
2017-09-09T14:17:48.624Z,28.90
2017-09-09T14:20:16.267Z,30.30
2017-09-09T14:22:43.983Z,29.00
2017-09-09T14:25:15.690Z,30.00
2017-09-09T14:27:45.242Z,28.90
2017-09-09T14:30:12.961Z,36.10
2017-09-09T14:32:40.567Z,35.90
2017-09-09T14:35:08.242Z,39.20
2017-09-09T14:37:35.880Z,36.80
2017-09-09T14:40:03.515Z,40.60
2017-09-09T14:42:31.128Z,37.10
2017-09-09T14:44:58.732Z,39.10
2017-09-09T14:47:26.367Z,40.50
2017-09-09T14:49:53.976Z,42.20
2017-09-09T14:52:21.629Z,39.40
2017-09-09T14:54:49.264Z,39.80
2017-09-09T14:57:16.894Z,40.60
2017-09-09T14:59:44.532Z,41.60
2017-09-09T15:02:12.140Z,41.70
2017-09-09T15:04:40.554Z,41.40
2017-09-09T15:07:08.231Z,41.40
2017-09-09T15:09:35.907Z,45.10
2017-09-09T15:12:03.527Z,48.40
2017-09-09T15:14:31.123Z,46.70
2017-09-09T15:16:58.747Z,54.20
2017-09-09T15:19:26.347Z,52.20
2017-09-09T15:21:53.947Z,50.60
2017-09-09T15:24:21.586Z,50.20
2017-09-09T15:26:49.225Z,49.70
2017-09-09T15:29:16.887Z,51.60
2017-09-09T15:31:44.495Z,53.40
2017-09-09T15:34:12.130Z,52.80
2017-09-09T15:36:39.801Z,55.80
2017-09-09T15:39:08.462Z,53.70
2017-09-09T15:41:36.268Z,53.20
2017-09-09T15:44:03.957Z,53.80
2017-09-09T15:46:31.617Z,55.50
2017-09-09T15:48:59.284Z,57.30
2017-09-09T15:51:27.303Z,60.50
2017-09-09T15:53:54.988Z,58.00
2017-09-09T15:56:22.617Z,57.40
2017-09-09T15:58:50.337Z,57.60
2017-09-09T16:01:17.995Z,59.90
2017-09-09T16:03:45.644Z,58.00
2017-09-09T16:06:13.338Z,58.90
2017-09-09T16:08:41.016Z,58.00
2017-09-09T16:11:08.672Z,58.20
2017-09-09T16:13:37.137Z,57.70
2017-09-09T16:16:04.791Z,57.60
2017-09-09T16:18:33.641Z,57.70
2017-09-09T16:21:01.270Z,57.60
2017-09-09T16:23:28.891Z,58.70
2017-09-09T16:25:56.585Z,59.50
2017-09-09T16:28:24.211Z,62.20
2017-09-09T16:30:51.887Z,64.60
2017-09-09T16:33:19.508Z,62.90
2017-09-09T16:35:47.152Z,63.20
2017-09-09T16:38:15.042Z,63.90
2017-09-09T16:40:42.848Z,65.20
2017-09-09T16:43:11.050Z,62.50
2017-09-09T16:45:38.677Z,62.80
2017-09-09T16:48:06.311Z,66.60
2017-09-09T16:50:33.963Z,69.40
2017-09-09T16:53:01.602Z,69.30
2017-09-09T16:55:29.277Z,69.40
2017-09-09T16:57:56.916Z,68.20
2017-09-09T17:00:24.555Z,72.40
2017-09-09T17:02:52.225Z,73.40
2017-09-09T17:05:19.856Z,71.80
2017-09-09T17:07:47.698Z,74.10
2017-09-09T17:10:15.334Z,75.80
2017-09-09T17:12:42.959Z,76.20
2017-09-09T17:15:10.620Z,74.10
2017-09-09T17:17:38.371Z,74.10
2017-09-09T17:20:06.060Z,75.00
2017-09-09T17:22:33.687Z,76.30
2017-09-09T17:25:01.316Z,76.80
2017-09-09T17:27:37.378Z,77.50
2017-09-09T17:30:12.706Z,78.90
2017-09-09T17:32:52.388Z,76.80
2017-09-09T17:35:31.027Z,75.80
2017-09-09T17:38:05.493Z,78.80
2017-09-09T17:40:34.000Z,76.40
2017-09-09T17:43:09.753Z,77.40
2017-09-09T17:45:46.580Z,77.40
2017-09-09T17:48:24.601Z,77.70
2017-09-09T17:51:00.977Z,75.80
2017-09-09T17:53:39.660Z,78.60
2017-09-09T17:56:16.024Z,79.00
2017-09-09T17:58:52.758Z,78.30
2017-09-09T18:01:28.635Z,77.90
2017-09-09T18:04:06.441Z,75.20
2017-09-09T18:06:42.725Z,72.90
2017-09-09T18:09:21.256Z,74.80
2017-09-09T18:11:55.245Z,73.90
2017-09-09T18:14:23.458Z,73.90
2017-09-09T18:16:51.139Z,71.80
2017-09-09T18:19:18.769Z,71.10
2017-09-09T18:21:46.442Z,69.60
2017-09-09T18:24:14.348Z,69.50
2017-09-09T18:26:42.017Z,69.90
2017-09-09T18:29:09.739Z,67.90
2017-09-09T18:31:37.386Z,68.10
2017-09-09T18:34:05.047Z,67.20
2017-09-09T18:36:32.666Z,66.80
2017-09-09T18:39:00.341Z,66.60
2017-09-09T18:41:27.971Z,65.80
2017-09-09T18:43:55.604Z,65.90
2017-09-09T18:46:23.264Z,66.80
2017-09-09T18:48:54.104Z,65.10
2017-09-09T18:51:28.125Z,64.00
2017-09-09T18:53:55.778Z,64.30
2017-09-09T18:56:23.439Z,64.60
2017-09-09T18:58:51.092Z,64.90
2017-09-09T19:01:18.739Z,64.00
2017-09-09T19:03:46.391Z,63.60
2017-09-09T19:06:14.027Z,62.30
2017-09-09T19:08:41.780Z,63.50
2017-09-09T19:11:09.415Z,63.20
2017-09-09T19:13:37.040Z,63.30
2017-09-09T19:16:04.697Z,63.10
2017-09-09T19:18:32.355Z,62.20
2017-09-09T19:21:00.785Z,62.80
2017-09-09T19:23:28.411Z,62.80
2017-09-09T19:25:56.059Z,63.10
2017-09-09T19:28:23.719Z,61.40
2017-09-09T19:30:51.355Z,62.60
2017-09-09T19:33:19.043Z,64.00
2017-09-09T19:35:46.675Z,62.80
2017-09-09T19:38:14.307Z,63.40
2017-09-09T19:40:41.964Z,63.10
2017-09-09T19:43:09.601Z,61.90
2017-09-09T19:45:37.268Z,62.30
2017-09-09T19:48:04.896Z,61.80
2017-09-09T19:50:32.527Z,61.50
2017-09-09T19:53:00.188Z,61.90
2017-09-09T19:55:27.815Z,61.90
2017-09-09T19:57:55.483Z,63.00
2017-09-09T20:00:23.152Z,64.20
2017-09-09T20:02:50.776Z,63.00
2017-09-09T20:05:18.446Z,63.70
2017-09-09T20:07:46.079Z,63.30
2017-09-09T20:10:13.747Z,63.70
2017-09-09T20:12:41.371Z,64.30
2017-09-09T20:15:10.357Z,63.90
2017-09-09T20:17:47.022Z,64.90
2017-09-09T20:20:15.097Z,62.70
2017-09-09T20:22:42.759Z,62.50
2017-09-09T20:25:10.376Z,63.20
2017-09-09T20:27:38.007Z,64.60
2017-09-09T20:30:05.737Z,65.40
2017-09-09T20:32:33.364Z,66.00
2017-09-09T20:35:01.024Z,65.80
2017-09-09T20:37:28.780Z,65.20
2017-09-09T20:39:56.639Z,65.80
2017-09-09T20:42:24.290Z,64.50
2017-09-09T20:44:52.724Z,66.10
2017-09-09T20:47:20.404Z,66.10
2017-09-09T20:49:48.041Z,66.60
2017-09-09T20:52:15.678Z,66.90
2017-09-09T20:54:43.324Z,67.40
2017-09-09T20:57:10.947Z,67.20
2017-09-09T20:59:38.647Z,67.20
2017-09-09T21:02:06.292Z,67.10
2017-09-09T21:04:33.932Z,68.40
2017-09-09T21:07:01.594Z,73.10
2017-09-09T21:09:29.239Z,70.70
2017-09-09T21:11:57.186Z,73.70
2017-09-09T21:14:24.823Z,69.40
2017-09-09T21:16:52.443Z,73.10
2017-09-09T21:19:20.218Z,75.30
2017-09-09T21:21:47.852Z,74.90
2017-09-09T21:24:15.516Z,78.40
2017-09-09T21:26:43.263Z,79.00
2017-09-09T21:29:10.887Z,81.10
2017-09-09T21:31:38.552Z,83.40
2017-09-09T21:34:06.187Z,85.00
2017-09-09T21:36:33.857Z,85.10
2017-09-09T21:39:01.574Z,85.80
2017-09-09T21:41:29.193Z,87.90
2017-09-09T21:43:56.874Z,87.50
2017-09-09T21:46:24.509Z,88.60
2017-09-09T21:48:52.181Z,89.30
2017-09-09T21:51:20.769Z,89.50
2017-09-09T21:53:48.402Z,91.10
2017-09-09T21:56:16.095Z,91.00
2017-09-09T21:58:43.715Z,90.90
2017-09-09T22:01:11.372Z,90.70
2017-09-09T22:03:38.992Z,91.70
2017-09-09T22:06:06.625Z,93.20
2017-09-09T22:08:34.274Z,94.40
2017-09-09T22:11:01.899Z,94.60
2017-09-09T22:13:29.556Z,95.50
2017-09-09T22:15:57.188Z,95.10
2017-09-09T22:18:24.806Z,96.00
2017-09-09T22:20:52.458Z,95.60
2017-09-09T22:23:20.097Z,95.40
2017-09-09T22:25:47.758Z,96.40
2017-09-09T22:28:15.396Z,96.10
2017-09-09T22:30:44.446Z,95.90
2017-09-09T22:33:12.098Z,96.30
2017-09-09T22:35:39.725Z,96.70
2017-09-09T22:38:07.388Z,96.90
2017-09-09T22:40:35.022Z,96.50
2017-09-09T22:43:02.651Z,95.40
2017-09-09T22:45:30.307Z,95.40
2017-09-09T22:47:57.940Z,94.50
2017-09-09T22:50:25.613Z,94.40
2017-09-09T22:52:53.239Z,94.60
2017-09-09T22:55:20.876Z,96.10
2017-09-09T22:57:48.524Z,96.10
2017-09-09T23:00:16.148Z,95.90
2017-09-09T23:02:43.803Z,94.50
2017-09-09T23:05:11.428Z,94.50
2017-09-09T23:07:39.065Z,94.70
2017-09-09T23:10:06.714Z,95.00
2017-09-09T23:12:34.335Z,94.50
2017-09-09T23:15:01.995Z,95.30
2017-09-09T23:17:29.627Z,95.60
2017-09-09T23:19:57.254Z,96.00
2017-09-09T23:22:24.912Z,95.50
2017-09-09T23:24:52.535Z,95.50
2017-09-09T23:27:20.193Z,92.90
2017-09-09T23:29:47.811Z,94.00
2017-09-09T23:32:15.431Z,94.20
2017-09-09T23:34:43.086Z,90.70
2017-09-09T23:37:10.712Z,88.40
2017-09-09T23:39:38.378Z,91.30
2017-09-09T23:42:05.999Z,86.50
2017-09-09T23:44:33.615Z,86.40
2017-09-09T23:47:01.275Z,89.00
2017-09-09T23:49:28.895Z,87.00
2017-09-09T23:51:56.548Z,89.00
2017-09-09T23:54:24.174Z,88.80
2017-09-09T23:56:51.816Z,90.90
2017-09-09T23:59:19.467Z,92.00
